sensor_id;sensor_type;location;lat;lon;timestamp;temperature;humidity
17944;DHT22;9097;47.028;15.444;2022-08-21T02:27:15;21.30;99.90
17944;DHT22;9097;47.028;15.444;2022-08-21T02:30:19;20.20;99.90
17944;DHT22;9097;47.028;15.444;2022-08-21T02:33:22;20.20;99.90
17944;DHT22;9097;47.028;15.444;2022-08-21T02:36:25;20.10;99.90
17944;DHT22;9097;47.028;15.444;2022-08-21T02:39:30;20.10;99.90
17944;DHT22;9097;47.028;15.444;2022-08-21T02:42:32;20.10;99.90
17944;DHT22;9097;47.028;15.444;2022-08-21T02:45:37;20.00;99.90
17944;DHT22;9097;47.028;15.444;2022-08-21T02:48:40;20.00;99.90
17944;DHT22;9097;47.028;15.444;2022-08-21T18:05:46;22.20;99.90
17944;DHT22;9097;47.028;15.444;2022-08-21T18:08:49;22.20;99.90
17944;DHT22;9097;47.028;15.444;2022-08-21T18:11:52;22.10;99.90
17944;DHT22;9097;47.028;15.444;2022-08-21T18:14:55;22.10;99.90
17944;DHT22;9097;47.028;15.444;2022-08-21T18:18:00;22.10;99.90
17944;DHT22;9097;47.028;15.444;2022-08-21T18:21:02;22.00;99.90
17944;DHT22;9097;47.028;15.444;2022-08-21T18:24:05;22.00;99.90
17944;DHT22;9097;47.028;15.444;2022-08-21T18:27:08;22.00;99.90
17944;DHT22;9097;47.028;15.444;2022-08-21T18:30:13;21.90;99.90
17944;DHT22;9097;47.028;15.444;2022-08-21T18:33:17;21.90;99.90
17944;DHT22;9097;47.028;15.444;2022-08-21T18:36:20;21.80;99.90
17944;DHT22;9097;47.028;15.444;2022-08-21T18:39:24;21.90;99.90
17944;DHT22;9097;47.028;15.444;2022-08-21T18:42:28;21.90;99.90
17944;DHT22;9097;47.028;15.444;2022-08-21T18:45:33;21.80;99.90
17944;DHT22;9097;47.028;15.444;2022-08-21T18:48:38;21.80;99.90
17944;DHT22;9097;47.028;15.444;2022-08-21T18:51:41;21.70;99.90
17944;DHT22;9097;47.028;15.444;2022-08-21T18:54:43;21.70;99.90
17944;DHT22;9097;47.028;15.444;2022-08-21T19:00:49;21.70;99.90
17944;DHT22;9097;47.028;15.444;2022-08-21T19:03:56;21.60;99.90
17944;DHT22;9097;47.028;15.444;2022-08-21T19:06:59;21.60;99.90
17944;DHT22;9097;47.028;15.444;2022-08-21T19:10:03;21.60;99.90
17944;DHT22;9097;47.028;15.444;2022-08-21T19:13:06;21.60;99.90
17944;DHT22;9097;47.028;15.444;2022-08-21T19:16:11;21.60;99.90
17944;DHT22;9097;47.028;15.444;2022-08-21T19:19:16;21.60;99.90
17944;DHT22;9097;47.028;15.444;2022-08-21T19:22:20;21.60;99.90
17944;DHT22;9097;47.028;15.444;2022-08-21T19:25:23;21.60;99.90
17944;DHT22;9097;47.028;15.444;2022-08-21T19:28:28;21.60;99.90
17944;DHT22;9097;47.028;15.444;2022-08-21T19:31:33;21.60;99.90
17944;DHT22;9097;47.028;15.444;2022-08-21T19:34:39;21.60;99.90
17944;DHT22;9097;47.028;15.444;2022-08-21T19:37:42;21.50;99.90
17944;DHT22;9097;47.028;15.444;2022-08-21T19:40:45;21.50;99.90
17944;DHT22;9097;47.028;15.444;2022-08-21T19:43:49;21.50;99.90
17944;DHT22;9097;47.028;15.444;2022-08-21T19:46:53;21.50;99.90
17944;DHT22;9097;47.028;15.444;2022-08-21T19:50:02;21.50;99.90
17944;DHT22;9097;47.028;15.444;2022-08-21T19:53:06;21.50;99.90
17944;DHT22;9097;47.028;15.444;2022-08-21T19:56:11;21.50;99.90
17944;DHT22;9097;47.028;15.444;2022-08-21T19:59:17;21.50;99.90
17944;DHT22;9097;47.028;15.444;2022-08-21T20:02:20;21.50;99.90
17944;DHT22;9097;47.028;15.444;2022-08-21T20:05:24;21.50;99.90
